Terminal Aerodrome Forecast
Issued by NWS Cleveland, OH

Home | Current Version | Previous Version | Graphics & Text | Print | Product List | Glossary On
Versions: 1 2 3 4 5 6 7 8 9 10 11 12 13 14 15 16 17 18 19 20
000
FTUS41 KCLE 251000 AAA
TAFCAK
TAF AMD
KCAK 251017Z 2510/2606 24010KT P6SM SCT035
      TEMPO 2510/2514 BKN035
     FM251500 32008KT P6SM BKN250
     FM260500 03006KT P6SM BKN110=

USA.gov is the U.S. government's official web portal to all federal, state and local government web resources and services.